Time;durP1;ratioP1;P1;durP2;ratioP2;P2;SDS_P1;SDS_P2;PMS_P1;PMS_P2;Temp;Humidity;BMP_temperature;BMP_pressure;BME280_temperature;BME280_humidity;BME280_pressure;Samples;Min_cycle;Max_cycle;Signal;HPM_P1;HPM_P2
2022/06/30 00:00:07;;;;;;;8.07;4.35;;;;;;;;;;5038221;28;20448;-80
2022/06/30 00:02:33;;;;;;;8.20;4.07;;;;;;;;;;5038531;28;20033;-79
2022/06/30 00:04:58;;;;;;;7.57;4.60;;;;;;;;;;5039470;28;20091;-78
2022/06/30 00:07:24;;;;;;;9.05;4.75;;;;;;;;;;5037016;28;20057;-79
2022/06/30 00:09:49;;;;;;;8.45;4.32;;;;;;;;;;5036940;28;20071;-79
2022/06/30 00:12:15;;;;;;;8.45;4.55;;;;;;;;;;5036643;28;20026;-79
2022/06/30 00:14:40;;;;;;;9.82;4.82;;;;;;;;;;5040006;28;20051;-79
2022/06/30 00:17:06;;;;;;;7.60;4.38;;;;;;;;;;5034882;28;20104;-79
2022/06/30 00:19:32;;;;;;;7.03;4.97;;;;;;;;;;5036110;28;20122;-79
2022/06/30 00:21:57;;;;;;;9.43;4.65;;;;;;;;;;5020727;28;20128;-79
2022/06/30 00:24:23;;;;;;;10.90;4.70;;;;;;;;;;5033846;28;20148;-79
2022/06/30 00:26:48;;;;;;;8.25;4.72;;;;;;;;;;5041401;28;20041;-78
2022/06/30 00:29:14;;;;;;;7.20;4.35;;;;;;;;;;5049162;28;20031;-78
2022/06/30 00:31:39;;;;;;;7.40;4.18;;;;;;;;;;5031562;28;20492;-79
2022/06/30 00:34:05;;;;;;;7.28;4.57;;;;;;;;;;5010202;28;20032;-79
2022/06/30 00:36:30;;;;;;;8.82;4.82;;;;;;;;;;5046931;28;20029;-79
2022/06/30 00:38:55;;;;;;;6.70;4.60;;;;;;;;;;5049539;28;20448;-78
2022/06/30 00:41:21;;;;;;;9.48;4.70;;;;;;;;;;5047757;28;20061;-79
2022/06/30 00:43:47;;;;;;;9.35;4.68;;;;;;;;;;5040508;28;20032;-79
2022/06/30 00:46:12;;;;;;;8.65;4.35;;;;;;;;;;5030537;28;20037;-79
2022/06/30 00:48:38;;;;;;;13.20;4.90;;;;;;;;;;5036445;28;20025;-79
2022/06/30 00:51:06;;;;;;;7.75;4.10;;;;;;;;;;5045917;28;20499;-79
2022/06/30 00:53:35;;;;;;;8.18;4.72;;;;;;;;;;5006201;28;20021;-78
2022/06/30 00:56:02;;;;;;;9.77;5.03;;;;;;;;;;5032676;28;20051;-79
2022/06/30 00:58:28;;;;;;;9.45;5.00;;;;;;;;;;5015731;28;20484;-80
2022/06/30 01:00:54;;;;;;;6.28;4.80;;;;;;;;;;5024319;28;20070;-80
2022/06/30 01:03:19;;;;;;;8.35;4.55;;;;;;;;;;5050312;28;20025;-79
2022/06/30 01:05:45;;;;;;;7.65;4.30;;;;;;;;;;5048263;28;20056;-78
2022/06/30 01:08:11;;;;;;;9.98;5.10;;;;;;;;;;5052399;28;20052;-78
2022/06/30 01:13:20;;;;;;;6.75;4.72;;;;;;;;;;5039025;28;20037;-79
2022/06/30 01:15:46;;;;;;;7.25;4.75;;;;;;;;;;5033071;28;20033;-80
2022/06/30 01:18:11;;;;;;;10.68;4.95;;;;;;;;;;5033628;28;20033;-78
2022/06/30 01:20:37;;;;;;;5.95;4.63;;;;;;;;;;5038039;28;20021;-79
2022/06/30 01:23:02;;;;;;;5.85;4.70;;;;;;;;;;5052041;28;20048;-80
2022/06/30 01:25:28;;;;;;;9.07;5.25;;;;;;;;;;5033699;28;20032;-79
2022/06/30 01:27:54;;;;;;;8.65;5.13;;;;;;;;;;5034280;28;20033;-80
2022/06/30 01:30:19;;;;;;;9.52;5.20;;;;;;;;;;5038795;28;20021;-80
2022/06/30 01:32:45;;;;;;;7.85;5.57;;;;;;;;;;5050089;28;20041;-80
2022/06/30 01:35:10;;;;;;;9.38;5.85;;;;;;;;;;5033731;28;20646;-79
2022/06/30 01:37:46;;;;;;;7.57;5.57;;;;;;;;;;5051585;28;20100;-79
2022/06/30 01:40:11;;;;;;;8.30;5.55;;;;;;;;;;5050165;28;20123;-78
2022/06/30 01:42:37;;;;;;;9.02;5.47;;;;;;;;;;5050246;28;20119;-78
2022/06/30 01:45:03;;;;;;;7.07;5.68;;;;;;;;;;5050181;28;20033;-79
2022/06/30 01:47:28;;;;;;;7.03;5.65;;;;;;;;;;5033823;28;20025;-78
2022/06/30 01:49:54;;;;;;;8.93;5.60;;;;;;;;;;5050844;28;20102;-79
2022/06/30 01:52:19;;;;;;;8.23;5.63;;;;;;;;;;5051412;28;20506;-79
2022/06/30 01:54:45;;;;;;;6.95;5.38;;;;;;;;;;5033584;28;20094;-78
2022/06/30 01:57:10;;;;;;;6.88;5.35;;;;;;;;;;5050068;28;20031;-79
2022/06/30 01:59:36;;;;;;;10.20;5.68;;;;;;;;;;5050235;28;20381;-79
2022/06/30 02:02:01;;;;;;;8.70;5.45;;;;;;;;;;5050241;28;20079;-80
2022/06/30 02:07:11;;;;;;;7.18;5.45;;;;;;;;;;5026543;28;20056;-79
2022/06/30 02:09:36;;;;;;;8.32;6.05;;;;;;;;;;5050925;28;20450;-79
2022/06/30 02:14:46;;;;;;;8.55;5.65;;;;;;;;;;5042576;28;20400;-79
2022/06/30 02:17:11;;;;;;;7.07;5.90;;;;;;;;;;5031764;28;20035;-79
2022/06/30 02:19:37;;;;;;;9.18;5.85;;;;;;;;;;5037672;28;20065;-79
2022/06/30 02:22:02;;;;;;;8.30;5.47;;;;;;;;;;5050197;28;20171;-79
2022/06/30 02:24:28;;;;;;;8.02;5.65;;;;;;;;;;5050613;28;20029;-79
2022/06/30 02:26:53;;;;;;;6.10;5.20;;;;;;;;;;5016985;28;20029;-80
2022/06/30 02:29:19;;;;;;;8.43;5.55;;;;;;;;;;5049010;28;20483;-79
2022/06/30 02:31:44;;;;;;;7.82;5.30;;;;;;;;;;5043530;28;20112;-79
2022/06/30 02:34:10;;;;;;;7.38;5.25;;;;;;;;;;5051773;28;20033;-80
2022/06/30 02:36:35;;;;;;;8.05;5.50;;;;;;;;;;5044615;28;20023;-80
2022/06/30 02:39:00;;;;;;;6.30;5.07;;;;;;;;;;5040362;28;20172;-80
2022/06/30 02:41:26;;;;;;;10.07;5.53;;;;;;;;;;5035131;28;20025;-78
2022/06/30 02:43:51;;;;;;;9.00;5.25;;;;;;;;;;5054832;28;20499;-79
2022/06/30 02:46:17;;;;;;;6.40;5.00;;;;;;;;;;5052576;28;20119;-78
2022/06/30 02:48:43;;;;;;;6.78;5.20;;;;;;;;;;5053898;28;20087;-78
2022/06/30 02:51:09;;;;;;;6.63;5.10;;;;;;;;;;5053651;28;20466;-78
2022/06/30 02:53:34;;;;;;;8.77;5.03;;;;;;;;;;5054305;28;20103;-78
2022/06/30 02:55:59;;;;;;;9.05;5.00;;;;;;;;;;5053328;28;20029;-79
2022/06/30 02:58:25;;;;;;;9.38;5.75;;;;;;;;;;5035615;28;20060;-78
2022/06/30 03:00:50;;;;;;;6.63;4.90;;;;;;;;;;5038583;28;20518;-79
2022/06/30 03:03:16;;;;;;;9.25;5.28;;;;;;;;;;5051553;28;20025;-79
2022/06/30 03:05:42;;;;;;;11.30;5.38;;;;;;;;;;5035689;28;20036;-78
2022/06/30 03:08:07;;;;;;;7.85;5.32;;;;;;;;;;5053686;28;20496;-78
2022/06/30 03:10:33;;;;;;;9.13;5.28;;;;;;;;;;5052844;28;20051;-79
2022/06/30 03:12:58;;;;;;;8.77;5.07;;;;;;;;;;5021316;28;20120;-79
2022/06/30 03:15:24;;;;;;;10.00;5.40;;;;;;;;;;5048123;28;20018;-79
2022/06/30 03:17:49;;;;;;;7.28;5.30;;;;;;;;;;5026222;28;20036;-79
2022/06/30 03:20:14;;;;;;;6.13;5.03;;;;;;;;;;5053906;28;20085;-79
2022/06/30 03:22:40;;;;;;;6.28;5.15;;;;;;;;;;5047143;28;20079;-79
2022/06/30 03:25:06;;;;;;;7.18;5.30;;;;;;;;;;5042983;28;20034;-79
2022/06/30 03:27:31;;;;;;;8.68;5.32;;;;;;;;;;5052801;28;20041;-79
2022/06/30 03:29:56;;;;;;;8.73;4.93;;;;;;;;;;5053890;28;20115;-79
2022/06/30 03:32:22;;;;;;;7.38;5.10;;;;;;;;;;5035813;28;20025;-79
2022/06/30 03:34:48;;;;;;;8.75;5.40;;;;;;;;;;5035494;28;20491;-80
2022/06/30 03:37:14;;;;;;;8.35;5.55;;;;;;;;;;5052255;28;20427;-80
2022/06/30 03:39:39;;;;;;;8.55;5.60;;;;;;;;;;5052020;28;20147;-79
2022/06/30 03:42:05;;;;;;;6.97;5.38;;;;;;;;;;5035173;28;20407;-79
2022/06/30 03:44:30;;;;;;;10.15;5.30;;;;;;;;;;5085454;28;20502;-79
2022/06/30 03:46:56;;;;;;;8.13;5.40;;;;;;;;;;5053615;28;20047;-81
2022/06/30 03:49:22;;;;;;;9.57;5.15;;;;;;;;;;5047823;28;20021;-80
2022/06/30 03:51:47;;;;;;;9.10;4.80;;;;;;;;;;5015908;28;20040;-80
2022/06/30 03:54:13;;;;;;;11.18;5.35;;;;;;;;;;5015079;28;20022;-80
2022/06/30 03:56:38;;;;;;;10.10;5.03;;;;;;;;;;5033731;28;20536;-78
2022/06/30 03:59:04;;;;;;;7.05;5.03;;;;;;;;;;5033730;28;20553;-79
2022/06/30 04:01:29;;;;;;;8.40;4.55;;;;;;;;;;5051970;28;20037;-80
2022/06/30 04:03:55;;;;;;;7.70;3.85;;;;;;;;;;5044064;28;20040;-79
2022/06/30 04:06:20;;;;;;;11.07;3.65;;;;;;;;;;5018060;28;20140;-80
2022/06/30 04:08:46;;;;;;;12.27;4.38;;;;;;;;;;5047805;28;20033;-80
2022/06/30 04:11:11;;;;;;;11.07;4.50;;;;;;;;;;5042809;28;20132;-78
2022/06/30 04:13:37;;;;;;;9.48;4.00;;;;;;;;;;5052855;28;20032;-78
2022/06/30 04:16:02;;;;;;;15.18;4.80;;;;;;;;;;5052907;28;20024;-79
2022/06/30 04:18:28;;;;;;;13.60;4.68;;;;;;;;;;5051549;28;20036;-79
2022/06/30 04:20:53;;;;;;;11.73;4.72;;;;;;;;;;5051482;28;20033;-79
2022/06/30 04:23:20;;;;;;;11.77;4.30;;;;;;;;;;5034996;28;20445;-79
2022/06/30 04:25:46;;;;;;;12.07;4.90;;;;;;;;;;5031286;28;20065;-79
2022/06/30 04:28:11;;;;;;;14.02;4.68;;;;;;;;;;5045485;28;20067;-80
2022/06/30 04:33:21;;;;;;;11.02;4.13;;;;;;;;;;5028905;28;20052;-79
2022/06/30 04:35:46;;;;;;;10.45;5.10;;;;;;;;;;5045616;28;20021;-80
2022/06/30 04:38:12;;;;;;;10.02;4.65;;;;;;;;;;5051800;28;20036;-80
2022/06/30 04:43:21;;;;;;;7.57;4.57;;;;;;;;;;5051515;28;20041;-80
2022/06/30 04:45:47;;;;;;;9.35;4.15;;;;;;;;;;5051733;28;20027;-80
2022/06/30 04:48:12;;;;;;;8.63;4.00;;;;;;;;;;5050985;28;20060;-80
2022/06/30 04:50:38;;;;;;;10.98;4.13;;;;;;;;;;5034637;28;20020;-79
2022/06/30 04:53:04;;;;;;;15.75;4.70;;;;;;;;;;5034450;28;20048;-82
2022/06/30 04:55:29;;;;;;;13.48;4.15;;;;;;;;;;5053174;28;20468;-78
2022/06/30 04:57:55;;;;;;;10.35;3.80;;;;;;;;;;5052580;28;20550;-79
2022/06/30 05:00:20;;;;;;;11.23;3.95;;;;;;;;;;5051415;28;20036;-80
2022/06/30 05:02:46;;;;;;;11.43;3.50;;;;;;;;;;5034483;28;20029;-78
2022/06/30 05:05:12;;;;;;;14.15;3.55;;;;;;;;;;5038349;28;20025;-79
2022/06/30 05:07:37;;;;;;;7.88;3.47;;;;;;;;;;5052133;28;20048;-80
2022/06/30 05:10:03;;;;;;;6.70;3.75;;;;;;;;;;5039581;28;20101;-80
2022/06/30 05:12:28;;;;;;;8.05;2.95;;;;;;;;;;5023984;28;20029;-79
2022/06/30 05:14:54;;;;;;;8.93;2.88;;;;;;;;;;5051177;28;20029;-79
2022/06/30 05:17:19;;;;;;;8.73;3.42;;;;;;;;;;5050573;28;20033;-80
2022/06/30 05:19:45;;;;;;;8.93;4.03;;;;;;;;;;5044987;28;20025;-79
2022/06/30 05:22:10;;;;;;;9.48;3.13;;;;;;;;;;5051176;28;20116;-80
2022/06/30 05:27:20;;;;;;;9.88;3.50;;;;;;;;;;5051546;28;20033;-80
2022/06/30 05:29:45;;;;;;;7.72;3.47;;;;;;;;;;5050907;28;20387;-79
2022/06/30 05:32:11;;;;;;;5.78;2.97;;;;;;;;;;5052467;28;20056;-82
2022/06/30 05:34:36;;;;;;;8.68;3.28;;;;;;;;;;5043760;28;20026;-81
2022/06/30 05:37:02;;;;;;;9.23;3.72;;;;;;;;;;5047244;28;20028;-80
2022/06/30 05:39:28;;;;;;;9.38;3.63;;;;;;;;;;5018549;28;20024;-79
2022/06/30 05:41:53;;;;;;;11.80;3.55;;;;;;;;;;5052702;28;20969;-80
2022/06/30 05:44:19;;;;;;;10.40;3.72;;;;;;;;;;5052069;28;20021;-82
2022/06/30 05:46:44;;;;;;;12.65;3.80;;;;;;;;;;5034970;28;20040;-79
2022/06/30 05:49:10;;;;;;;11.55;3.72;;;;;;;;;;5050914;28;20032;-81
2022/06/30 05:51:36;;;;;;;12.75;3.88;;;;;;;;;;5050658;28;20058;-79
2022/06/30 05:54:01;;;;;;;9.80;3.70;;;;;;;;;;5050700;28;20052;-79
2022/06/30 05:56:27;;;;;;;10.55;3.50;;;;;;;;;;5050711;28;20033;-79
2022/06/30 05:58:52;;;;;;;10.10;4.00;;;;;;;;;;5051500;28;20123;-80
2022/06/30 06:01:18;;;;;;;11.25;4.00;;;;;;;;;;5050681;28;20047;-81
2022/06/30 06:03:43;;;;;;;10.32;3.55;;;;;;;;;;5045077;28;20022;-82
2022/06/30 06:06:09;;;;;;;7.32;3.50;;;;;;;;;;5012400;28;20091;-80
2022/06/30 06:08:34;;;;;;;11.20;3.63;;;;;;;;;;5053424;28;20041;-79
2022/06/30 06:11:00;;;;;;;11.85;3.47;;;;;;;;;;5054215;28;20032;-80
2022/06/30 06:13:25;;;;;;;8.45;3.15;;;;;;;;;;5055551;28;20399;-78
2022/06/30 06:15:51;;;;;;;7.15;3.25;;;;;;;;;;5055931;28;20125;-80
2022/06/30 06:18:16;;;;;;;10.45;3.58;;;;;;;;;;5054320;28;20025;-80
2022/06/30 06:20:42;;;;;;;11.65;3.20;;;;;;;;;;5037785;28;20033;-82
2022/06/30 06:23:08;;;;;;;12.25;3.28;;;;;;;;;;5038343;28;20404;-79
2022/06/30 06:25:33;;;;;;;14.50;4.43;;;;;;;;;;5044758;28;20029;-81
2022/06/30 06:30:43;;;;;;;9.82;3.40;;;;;;;;;;5055837;28;20037;-84
2022/06/30 06:33:08;;;;;;;6.93;3.03;;;;;;;;;;5054861;28;20029;-80
2022/06/30 06:35:34;;;;;;;10.02;3.60;;;;;;;;;;5042789;28;20048;-80
2022/06/30 06:38:01;;;;;;;5.78;2.88;;;;;;;;;;5055929;28;20107;-80
2022/06/30 06:40:26;;;;;;;9.70;2.80;;;;;;;;;;5055250;28;20086;-81
2022/06/30 06:42:52;;;;;;;6.20;2.67;;;;;;;;;;5055867;28;20028;-82
2022/06/30 06:45:17;;;;;;;6.13;2.85;;;;;;;;;;5054671;28;20040;-80
2022/06/30 06:47:43;;;;;;;9.57;2.88;;;;;;;;;;5055695;28;20057;-80
2022/06/30 06:50:08;;;;;;;5.47;2.30;;;;;;;;;;5050580;28;20037;-80
2022/06/30 06:52:34;;;;;;;7.25;2.42;;;;;;;;;;5051926;28;20028;-80
2022/06/30 06:55:00;;;;;;;5.80;2.28;;;;;;;;;;5054629;28;20491;-81
2022/06/30 06:57:29;;;;;;;6.68;2.20;;;;;;;;;;5054648;28;20093;-81
2022/06/30 06:59:55;;;;;;;5.35;2.28;;;;;;;;;;5053953;28;20051;-79
2022/06/30 07:02:20;;;;;;;4.57;2.22;;;;;;;;;;5054986;28;20050;-80
2022/06/30 07:04:46;;;;;;;6.07;2.33;;;;;;;;;;5037624;28;20523;-81
2022/06/30 07:07:12;;;;;;;6.70;2.10;;;;;;;;;;5041081;28;20052;-80
2022/06/30 07:09:37;;;;;;;4.57;2.28;;;;;;;;;;5053393;28;20041;-82
2022/06/30 07:12:03;;;;;;;5.40;2.80;;;;;;;;;;5042101;28;20033;-80
2022/06/30 07:14:28;;;;;;;4.60;2.25;;;;;;;;;;5055588;28;20039;-79
2022/06/30 07:16:54;;;;;;;4.28;2.08;;;;;;;;;;5053596;28;20464;-80
2022/06/30 07:19:19;;;;;;;4.00;2.25;;;;;;;;;;5055495;28;20025;-81
2022/06/30 07:21:45;;;;;;;5.30;1.92;;;;;;;;;;5053769;28;20029;-80
2022/06/30 07:24:11;;;;;;;5.97;2.38;;;;;;;;;;5044324;28;20036;-82
2022/06/30 07:26:36;;;;;;;5.28;2.00;;;;;;;;;;5010271;28;20017;-80
2022/06/30 07:29:02;;;;;;;5.18;2.10;;;;;;;;;;5051304;28;20056;-81
2022/06/30 07:31:27;;;;;;;5.43;4.00;;;;;;;;;;5027386;28;20476;-79
2022/06/30 07:33:53;;;;;;;5.45;2.80;;;;;;;;;;5051574;28;20024;-80
2022/06/30 07:36:18;;;;;;;3.92;2.10;;;;;;;;;;5053218;28;20024;-80
2022/06/30 07:38:45;;;;;;;4.95;2.50;;;;;;;;;;5037259;28;20040;-82
2022/06/30 07:41:10;;;;;;;3.83;2.60;;;;;;;;;;5053544;28;20033;-80
2022/06/30 07:43:36;;;;;;;4.30;2.13;;;;;;;;;;5030127;28;20537;-79
2022/06/30 07:46:02;;;;;;;5.97;2.08;;;;;;;;;;5050310;28;20024;-81
2022/06/30 07:48:27;;;;;;;5.88;2.97;;;;;;;;;;5035160;28;20044;-81
2022/06/30 07:50:53;;;;;;;7.72;2.80;;;;;;;;;;5052436;28;20028;-80
2022/06/30 07:53:18;;;;;;;7.32;2.00;;;;;;;;;;5048776;28;20433;-81
2022/06/30 07:55:44;;;;;;;4.70;1.88;;;;;;;;;;5052993;28;20036;-80
2022/06/30 07:58:10;;;;;;;3.67;2.00;;;;;;;;;;5053590;28;20029;-81
2022/06/30 08:00:36;;;;;;;3.97;1.92;;;;;;;;;;5051305;28;20033;-81
2022/06/30 08:03:02;;;;;;;3.15;1.67;;;;;;;;;;5031043;28;20040;-82
2022/06/30 08:05:27;;;;;;;3.60;1.80;;;;;;;;;;5035064;28;20026;-81
2022/06/30 08:07:54;;;;;;;3.10;1.80;;;;;;;;;;5046923;28;20415;-83
2022/06/30 08:10:20;;;;;;;4.88;2.10;;;;;;;;;;5022760;28;20526;-82
2022/06/30 08:12:45;;;;;;;3.08;1.70;;;;;;;;;;5045021;28;20124;-81
2022/06/30 08:15:11;;;;;;;5.50;2.33;;;;;;;;;;5044989;28;20035;-80
2022/06/30 08:17:36;;;;;;;3.15;1.90;;;;;;;;;;5047129;28;20423;-80
2022/06/30 08:20:02;;;;;;;4.80;1.85;;;;;;;;;;5039828;28;20029;-82
2022/06/30 08:22:27;;;;;;;3.28;2.05;;;;;;;;;;5052389;28;20035;-81
2022/06/30 08:24:53;;;;;;;7.28;2.30;;;;;;;;;;5052997;28;20021;-80
2022/06/30 08:27:18;;;;;;;4.22;1.90;;;;;;;;;;5037576;28;20090;-78
2022/06/30 08:29:44;;;;;;;3.75;2.00;;;;;;;;;;5046247;28;20030;-81
2022/06/30 08:32:09;;;;;;;4.15;1.80;;;;;;;;;;5044265;28;20060;-82
2022/06/30 08:34:34;;;;;;;2.75;1.80;;;;;;;;;;5049136;28;20056;-83
2022/06/30 08:37:00;;;;;;;3.85;1.92;;;;;;;;;;5035093;28;20061;-81
2022/06/30 08:42:10;;;;;;;3.75;2.10;;;;;;;;;;5052223;28;20047;-81
2022/06/30 08:44:36;;;;;;;3.95;1.85;;;;;;;;;;5051888;28;20016;-82
2022/06/30 08:47:02;;;;;;;4.32;1.65;;;;;;;;;;5050665;28;20083;-81
2022/06/30 08:49:28;;;;;;;4.43;1.75;;;;;;;;;;5052683;28;20021;-80
2022/06/30 08:51:54;;;;;;;3.95;1.85;;;;;;;;;;5051765;28;20033;-81
2022/06/30 08:54:20;;;;;;;3.40;1.58;;;;;;;;;;5051556;28;20017;-81
2022/06/30 08:56:46;;;;;;;3.45;1.98;;;;;;;;;;5035127;28;20089;-83
2022/06/30 08:59:11;;;;;;;5.30;2.00;;;;;;;;;;5051801;28;20025;-81
2022/06/30 09:01:37;;;;;;;5.40;2.30;;;;;;;;;;5046797;28;20063;-81
2022/06/30 09:04:02;;;;;;;5.90;2.17;;;;;;;;;;5036310;28;20507;-81
2022/06/30 09:06:28;;;;;;;2.83;1.67;;;;;;;;;;5047035;28;20060;-81
2022/06/30 09:08:54;;;;;;;6.78;2.10;;;;;;;;;;5035646;28;20037;-81
2022/06/30 09:11:20;;;;;;;4.03;1.70;;;;;;;;;;5051979;28;20029;-81
2022/06/30 09:13:48;;;;;;;4.78;1.48;;;;;;;;;;5035213;28;20034;-80
2022/06/30 09:16:14;;;;;;;2.65;1.60;;;;;;;;;;5060293;28;20530;-81
2022/06/30 09:18:39;;;;;;;2.78;1.52;;;;;;;;;;5033741;28;20021;-82
2022/06/30 09:21:13;;;;;;;3.33;1.67;;;;;;;;;;5008941;28;20075;-80
2022/06/30 09:23:38;;;;;;;3.92;1.85;;;;;;;;;;5024531;28;20057;-80
2022/06/30 09:26:04;;;;;;;2.85;1.52;;;;;;;;;;5042608;28;20052;-80
2022/06/30 09:28:42;;;;;;;5.40;1.55;;;;;;;;;;5052888;28;20483;-81
2022/06/30 09:31:12;;;;;;;4.28;1.70;;;;;;;;;;5051407;28;20037;-80
2022/06/30 09:33:39;;;;;;;3.85;1.40;;;;;;;;;;5049800;28;20502;-80
2022/06/30 09:36:23;;;;;;;4.10;1.23;;;;;;;;;;5034412;28;20474;-80
2022/06/30 09:38:59;;;;;;;3.00;1.55;;;;;;;;;;5052066;28;20460;-80
2022/06/30 09:41:24;;;;;;;;;;;;;;;;;;5054545;28;20037;-79
2022/06/30 09:43:50;;;;;;;2.27;1.40;;;;;;;;;;5048330;28;20437;-80
2022/06/30 09:46:15;;;;;;;4.18;1.60;;;;;;;;;;5055423;28;20048;-81
2022/06/30 09:48:41;;;;;;;2.42;1.40;;;;;;;;;;5054132;28;20032;-81
2022/06/30 09:51:06;;;;;;;3.58;1.48;;;;;;;;;;5055178;28;20385;-80
2022/06/30 09:53:32;;;;;;;3.42;1.45;;;;;;;;;;5056367;28;20421;-81
2022/06/30 09:56:08;;;;;;;4.07;1.40;;;;;;;;;;5039799;28;20097;-80
2022/06/30 09:58:35;;;;;;;4.38;1.63;;;;;;;;;;5054862;28;20453;-80
2022/06/30 10:01:01;;;;;;;4.05;1.27;;;;;;;;;;5038388;28;20095;-80
2022/06/30 10:03:26;;;;;;;3.25;1.60;;;;;;;;;;5047943;28;20065;-80
2022/06/30 10:06:11;;;;;;;4.45;1.60;;;;;;;;;;5037684;28;20025;-81
2022/06/30 10:08:36;;;;;;;3.42;1.50;;;;;;;;;;5052279;28;20104;-82
2022/06/30 10:11:02;;;;;;;4.10;1.27;;;;;;;;;;5044760;28;20159;-79
2022/06/30 10:13:27;;;;;;;3.78;1.70;;;;;;;;;;5034364;28;20033;-79
2022/06/30 10:15:54;;;;;;;5.65;1.40;;;;;;;;;;5054876;28;20116;-81
2022/06/30 10:18:20;;;;;;;3.15;1.40;;;;;;;;;;5054843;28;20043;-79
2022/06/30 10:20:45;;;;;;;7.47;1.67;;;;;;;;;;5055165;28;20061;-81
2022/06/30 10:23:13;;;;;;;4.65;1.40;;;;;;;;;;5053731;28;20064;-79
2022/06/30 10:25:38;;;;;;;1.58;1.10;;;;;;;;;;5034435;28;20391;-80
2022/06/30 10:28:04;;;;;;;3.25;1.40;;;;;;;;;;5045557;28;20037;-81
2022/06/30 10:30:41;;;;;;;4.57;1.40;;;;;;;;;;5026122;28;20116;-80
2022/06/30 10:33:12;;;;;;;2.22;1.20;;;;;;;;;;5055581;28;20490;-81
2022/06/30 10:35:46;;;;;;;3.25;1.30;;;;;;;;;;5037095;28;20044;-80
2022/06/30 10:38:31;;;;;;;1.75;1.17;;;;;;;;;;5053829;28;20456;-80
2022/06/30 10:40:56;;;;;;;2.72;1.20;;;;;;;;;;5044418;28;20486;-81
2022/06/30 10:43:22;;;;;;;3.35;1.00;;;;;;;;;;5053421;28;20033;-81
2022/06/30 10:45:58;;;;;;;3.60;1.10;;;;;;;;;;5051618;28;20041;-80
2022/06/30 10:48:23;;;;;;;5.25;1.83;;;;;;;;;;5036300;28;20033;-81
2022/06/30 10:50:50;;;;;;;3.00;1.20;;;;;;;;;;5054742;28;20031;-80
2022/06/30 10:53:16;;;;;;;2.85;1.13;;;;;;;;;;5024411;28;20032;-80
2022/06/30 10:55:43;;;;;;;2.55;1.40;;;;;;;;;;5048432;28;20051;-80
2022/06/30 10:58:08;;;;;;;4.50;1.30;;;;;;;;;;5054164;28;20037;-80
2022/06/30 11:00:44;;;;;;;2.78;1.50;;;;;;;;;;5053712;28;20660;-81
2022/06/30 11:03:09;;;;;;;2.63;1.25;;;;;;;;;;5037461;28;20438;-80
2022/06/30 11:05:48;;;;;;;2.65;1.23;;;;;;;;;;5025252;28;20024;-81
2022/06/30 11:08:33;;;;;;;1.60;1.00;;;;;;;;;;5041556;28;20069;-81
2022/06/30 11:10:59;;;;;;;;;;;;;;;;;;5032673;28;20041;-79
2022/06/30 11:13:27;;;;;;;5.43;1.23;;;;;;;;;;5040210;28;19927;-80
2022/06/30 11:15:53;;;;;;;3.38;1.17;;;;;;;;;;5036842;28;20170;-80
2022/06/30 11:18:19;;;;;;;6.03;1.10;;;;;;;;;;5053827;28;20111;-80
2022/06/30 11:20:44;;;;;;;2.10;1.00;;;;;;;;;;5053285;28;20045;-78
2022/06/30 11:23:10;;;;;;;3.35;1.20;;;;;;;;;;5053546;28;20035;-80
2022/06/30 11:28:19;;;;;;;2.47;1.00;;;;;;;;;;5039165;28;20467;-80
2022/06/30 11:30:45;;;;;;;2.08;0.95;;;;;;;;;;5053107;28;20033;-79
2022/06/30 11:33:11;;;;;;;3.50;1.08;;;;;;;;;;5054135;28;20090;-82
2022/06/30 11:35:36;;;;;;;2.03;1.08;;;;;;;;;;5036231;28;20017;-80
2022/06/30 11:38:02;;;;;;;2.63;0.90;;;;;;;;;;5053673;28;20032;-82
2022/06/30 11:40:29;;;;;;;1.25;0.68;;;;;;;;;;5053342;28;20036;-81
2022/06/30 11:42:55;;;;;;;1.58;1.00;;;;;;;;;;5036209;28;20136;-79
2022/06/30 11:45:21;;;;;;;2.70;1.35;;;;;;;;;;5053759;28;20454;-80
2022/06/30 11:47:50;;;;;;;3.95;1.55;;;;;;;;;;5052210;28;20445;-81
2022/06/30 11:50:18;;;;;;;2.85;1.25;;;;;;;;;;5052810;28;20027;-80
2022/06/30 11:52:44;;;;;;;1.98;1.00;;;;;;;;;;5054151;28;20033;-81
2022/06/30 11:55:10;;;;;;;2.75;1.00;;;;;;;;;;5052271;28;20112;-80
2022/06/30 11:57:38;;;;;;;3.42;1.10;;;;;;;;;;5052239;28;20135;-80
2022/06/30 12:00:04;;;;;;;3.63;1.20;;;;;;;;;;5052105;28;20048;-79
2022/06/30 12:02:32;;;;;;;2.17;1.10;;;;;;;;;;5051983;28;20124;-82
2022/06/30 12:04:58;;;;;;;4.05;1.10;;;;;;;;;;5040076;28;20029;-79
2022/06/30 12:07:24;;;;;;;3.42;1.00;;;;;;;;;;5035287;28;20510;-80
2022/06/30 12:09:50;;;;;;;4.78;1.00;;;;;;;;;;5052912;28;20045;-81
2022/06/30 12:12:19;;;;;;;3.13;1.20;;;;;;;;;;5053145;28;20139;-79
2022/06/30 12:14:44;;;;;;;2.95;1.25;;;;;;;;;;5050286;28;20115;-80
2022/06/30 12:17:10;;;;;;;1.73;1.00;;;;;;;;;;5053001;28;20024;-81
2022/06/30 12:19:36;;;;;;;2.17;1.08;;;;;;;;;;5052008;28;20021;-80
2022/06/30 12:22:02;;;;;;;3.83;1.13;;;;;;;;;;5042306;28;20037;-79
2022/06/30 12:24:27;;;;;;;2.33;1.00;;;;;;;;;;5051961;28;20029;-81
2022/06/30 12:26:54;;;;;;;2.03;0.90;;;;;;;;;;5052116;28;20416;-81
2022/06/30 12:29:23;;;;;;;3.53;1.00;;;;;;;;;;5052483;28;20024;-81
2022/06/30 12:31:57;;;;;;;2.13;1.00;;;;;;;;;;5051089;28;20037;-80
2022/06/30 12:34:24;;;;;;;3.67;1.00;;;;;;;;;;5045439;28;20057;-80
2022/06/30 12:36:49;;;;;;;3.25;1.00;;;;;;;;;;5044817;28;20028;-80
2022/06/30 12:39:15;;;;;;;1.73;0.90;;;;;;;;;;5052287;28;20037;-80
2022/06/30 12:41:41;;;;;;;3.25;1.00;;;;;;;;;;5051114;28;20028;-80
2022/06/30 12:44:07;;;;;;;3.65;1.02;;;;;;;;;;5044758;28;20036;-80
2022/06/30 12:46:39;;;;;;;1.65;1.05;;;;;;;;;;5051423;28;20021;-79
2022/06/30 12:49:05;;;;;;;4.45;1.20;;;;;;;;;;5046836;28;20519;-79
2022/06/30 12:51:30;;;;;;;1.88;0.80;;;;;;;;;;5046131;28;20025;-79
2022/06/30 12:54:16;;;;;;;3.58;1.20;;;;;;;;;;5050362;28;20049;-80
2022/06/30 12:56:42;;;;;;;2.38;0.95;;;;;;;;;;5034302;28;20051;-81
2022/06/30 12:59:11;;;;;;;2.85;1.50;;;;;;;;;;5051926;28;20021;-80
2022/06/30 13:01:38;;;;;;;2.13;1.10;;;;;;;;;;5030208;28;20036;-80
2022/06/30 13:04:09;;;;;;;7.20;1.35;;;;;;;;;;5043729;28;20029;-80
2022/06/30 13:06:36;;;;;;;2.20;1.20;;;;;;;;;;5037405;28;20412;-81
2022/06/30 13:09:04;;;;;;;3.17;1.05;;;;;;;;;;5044957;28;20615;-79
2022/06/30 13:11:30;;;;;;;2.90;1.10;;;;;;;;;;5029946;28;20450;-81
2022/06/30 13:13:57;;;;;;;1.92;1.05;;;;;;;;;;5049395;28;20108;-79
2022/06/30 13:16:22;;;;;;;3.25;1.10;;;;;;;;;;5045132;28;20037;-81
2022/06/30 13:18:48;;;;;;;2.22;0.90;;;;;;;;;;5051636;28;20040;-80
2022/06/30 13:21:17;;;;;;;4.35;1.10;;;;;;;;;;5039453;28;20029;-81
2022/06/30 13:23:42;;;;;;;2.47;1.02;;;;;;;;;;5040979;28;20028;-80
2022/06/30 13:26:08;;;;;;;4.22;1.35;;;;;;;;;;5050293;28;20033;-80
2022/06/30 13:28:33;;;;;;;3.65;1.20;;;;;;;;;;5034179;28;20025;-80
2022/06/30 13:30:59;;;;;;;4.85;1.63;;;;;;;;;;5033917;28;20059;-81
2022/06/30 13:33:24;;;;;;;3.13;1.52;;;;;;;;;;5051005;28;20029;-80
2022/06/30 13:35:50;;;;;;;3.03;1.30;;;;;;;;;;5050191;28;20083;-84
2022/06/30 13:38:15;;;;;;;3.10;1.45;;;;;;;;;;5043439;28;20028;-79
2022/06/30 13:40:41;;;;;;;3.40;1.30;;;;;;;;;;5050401;28;20033;-82
2022/06/30 13:43:06;;;;;;;2.38;1.20;;;;;;;;;;5026098;28;20029;-79
2022/06/30 13:45:32;;;;;;;3.10;1.30;;;;;;;;;;5051449;28;20041;-81
2022/06/30 13:47:57;;;;;;;2.35;1.13;;;;;;;;;;5051897;28;20029;-80
2022/06/30 13:50:23;;;;;;;3.88;1.13;;;;;;;;;;5050563;28;20500;-80
2022/06/30 13:52:48;;;;;;;3.38;1.40;;;;;;;;;;5044751;28;20476;-80
2022/06/30 13:55:14;;;;;;;2.75;1.20;;;;;;;;;;5046209;28;20044;-81
2022/06/30 13:57:39;;;;;;;3.50;1.35;;;;;;;;;;5049184;28;20507;-81
2022/06/30 14:00:05;;;;;;;2.83;1.40;;;;;;;;;;5051231;28;20147;-79
2022/06/30 14:02:33;;;;;;;4.57;1.58;;;;;;;;;;5049396;28;20037;-80
2022/06/30 14:04:59;;;;;;;3.65;1.20;;;;;;;;;;5043996;28;20074;-81
2022/06/30 14:07:25;;;;;;;3.72;1.50;;;;;;;;;;5018030;28;20521;-80
2022/06/30 14:09:52;;;;;;;1.90;1.20;;;;;;;;;;5041692;28;20037;-80
2022/06/30 14:12:17;;;;;;;1.95;1.15;;;;;;;;;;5048842;28;20087;-80
2022/06/30 14:14:43;;;;;;;3.33;1.50;;;;;;;;;;5033802;28;20041;-79
2022/06/30 14:17:08;;;;;;;4.57;1.38;;;;;;;;;;5025397;28;20021;-80
2022/06/30 14:19:34;;;;;;;2.85;1.52;;;;;;;;;;5044494;28;20094;-80
2022/06/30 14:21:59;;;;;;;3.38;1.70;;;;;;;;;;5051490;28;20858;-81
2022/06/30 14:24:25;;;;;;;4.82;1.60;;;;;;;;;;5049990;28;20037;-79
2022/06/30 14:26:51;;;;;;;4.82;1.77;;;;;;;;;;5052430;28;20031;-82
2022/06/30 14:29:16;;;;;;;4.82;1.65;;;;;;;;;;5020993;28;20127;-80
2022/06/30 14:31:42;;;;;;;6.20;1.85;;;;;;;;;;5055398;28;20028;-81
2022/06/30 14:34:07;;;;;;;6.25;2.00;;;;;;;;;;5053383;28;20032;-79
2022/06/30 14:36:33;;;;;;;3.22;1.63;;;;;;;;;;5055284;28;20066;-79
2022/06/30 14:38:58;;;;;;;3.67;1.50;;;;;;;;;;5054490;28;20032;-81
2022/06/30 14:44:08;;;;;;;2.90;1.60;;;;;;;;;;5040158;28;20041;-80
2022/06/30 14:46:34;;;;;;;3.83;1.52;;;;;;;;;;5054464;28;20116;-80
2022/06/30 14:49:00;;;;;;;3.50;1.58;;;;;;;;;;5042150;28;20029;-83
2022/06/30 14:51:25;;;;;;;6.68;1.88;;;;;;;;;;5043643;28;20504;-78
2022/06/30 14:53:51;;;;;;;4.65;1.98;;;;;;;;;;5034745;28;20049;-78
2022/06/30 14:56:16;;;;;;;6.85;2.10;;;;;;;;;;5034178;28;20096;-77
2022/06/30 14:58:42;;;;;;;5.18;2.00;;;;;;;;;;5033987;28;20095;-79
2022/06/30 15:01:07;;;;;;;4.05;1.65;;;;;;;;;;5034325;28;20375;-78
2022/06/30 15:03:36;;;;;;;3.42;1.70;;;;;;;;;;5034917;28;20095;-78